Station Historical Data
Daily Summary for May 26, 2017 Units:  Metric    English   Both
« Previous Day
Next Day »
Daily Weekly Monthly Yearly Custom
  High: Low: Average:
Temperature: 16.8 °C 11.5 °C 12.8 °C
Dew Point: 14.7 °C 10.6 °C 11.7 °C
Humidity: 95% 85% 93%
Wind Speed: 20.9km/h 0km/h 6.6km/h
Wind Gust: 30.6km/h - -
Wind- - WSW
Pressure: 1012.1 hPa 999.5 hPa -
Precipitation: 0 mm    
Historical Graphs
 
 
Tabular Data for May 26, 2017
Time Temperature Dew Point Pressure Wind Wind Speed Wind Gust Humidity Rainfall Rate (Hourly)
00:00 13 °C 11.9 °C 999.5 hPa SW 4.8 km/h 11.3 km/h 93% 0 mm
00:05 12.9 °C 12 °C 999.5 hPa SW 4.8 km/h 11.3 km/h 94% 0 mm
00:10 12.9 °C 11.9 °C 999.9 hPa SW 3.2 km/h 8 km/h 94% 0 mm
00:15 12.8 °C 11.7 °C 999.9 hPa SW 3.2 km/h 9.7 km/h 93% 0 mm
00:20 12.7 °C 11.6 °C 1000.2 hPa WSW 4.8 km/h 9.7 km/h 93% 0 mm
00:25 12.6 °C 11.6 °C 1000.2 hPa SW 4.8 km/h 11.3 km/h 94% 0 mm
00:35 12.5 °C 11.6 °C 1000.2 hPa WSW 3.2 km/h 9.7 km/h 94% 0 mm
00:40 12.4 °C 11.5 °C 1000.2 hPa SW 6.4 km/h 12.9 km/h 94% 0 mm
00:45 12.4 °C 11.5 °C 1000.2 hPa WSW 6.4 km/h 11.3 km/h 94% 0 mm
00:50 12.3 °C 11.4 °C 1000.2 hPa WSW 3.2 km/h 12.9 km/h 94% 0 mm
00:55 12.4 °C 11.4 °C 1000.2 hPa WSW 3.2 km/h 11.3 km/h 94% 0 mm
01:00 12.4 °C 11.4 °C 1000.2 hPa WSW 4.8 km/h 11.3 km/h 94% 0 mm
01:05 12.3 °C 11.4 °C 1000.2 hPa SW 4.8 km/h 11.3 km/h 94% 0 mm
01:10 12.3 °C 11.4 °C 1000.2 hPa SW 6.4 km/h 11.3 km/h 94% 0 mm
01:15 12.3 °C 11.4 °C 1000.2 hPa WSW 6.4 km/h 11.3 km/h 94% 0 mm
01:20 12.4 °C 11.4 °C 1000.6 hPa WSW 4.8 km/h 11.3 km/h 94% 0 mm
01:25 12.4 °C 11.5 °C 1000.6 hPa WSW 4.8 km/h 11.3 km/h 94% 0 mm
01:30 12.4 °C 11.5 °C 1000.6 hPa WSW 4.8 km/h 11.3 km/h 94% 0 mm
01:35 12.5 °C 11.7 °C 1000.6 hPa WSW 3.2 km/h 9.7 km/h 95% 0 mm
01:40 12.6 °C 11.8 °C 1000.6 hPa WSW 8 km/h 12.9 km/h 95% 0 mm
01:45 12.6 °C 11.6 °C 1000.6 hPa SW 3.2 km/h 12.9 km/h 94% 0 mm
01:50 12.6 °C 11.6 °C 1000.6 hPa West 4.8 km/h 9.7 km/h 94% 0 mm
01:55 12.4 °C 11.5 °C 1000.6 hPa SW 11.3 km/h 12.9 km/h 94% 0 mm
02:00 12.4 °C 11.4 °C 1000.6 hPa SW 6.4 km/h 11.3 km/h 94% 0 mm
02:05 12.4 °C 11.6 °C 1000.6 hPa WSW 6.4 km/h 11.3 km/h 95% 0 mm
02:10 12.4 °C 11.7 °C 1000.6 hPa WSW 6.4 km/h 14.5 km/h 95% 0 mm
02:15 12.5 °C 11.7 °C 1000.6 hPa WSW 6.4 km/h 14.5 km/h 95% 0 mm
02:20 12.6 °C 11.8 °C 1000.6 hPa SSW 4.8 km/h 9.7 km/h 95% 0 mm
02:25 12.4 °C 11.7 °C 1000.6 hPa WSW 6.4 km/h 9.7 km/h 95% 0 mm
02:30 12.3 °C 11.6 °C 1000.6 hPa WSW 4.8 km/h 11.3 km/h 95% 0 mm
02:35 12.3 °C 11.5 °C 1000.6 hPa West 3.2 km/h 9.7 km/h 95% 0 mm
02:40 12.3 °C 11.5 °C 1000.6 hPa SW 4.8 km/h 12.9 km/h 95% 0 mm
02:45 12.2 °C 11.2 °C 1000.6 hPa WSW 8 km/h 9.7 km/h 94% 0 mm
02:50 12 °C 11.1 °C 1000.9 hPa SSW 6.4 km/h 16.1 km/h 94% 0 mm
02:55 11.8 °C 11.1 °C 1000.9 hPa SW 6.4 km/h 16.1 km/h 95% 0 mm
03:00 11.8 °C 10.8 °C 1000.9 hPa SW 8 km/h 16.1 km/h 94% 0 mm
03:05 11.7 °C 10.9 °C 1000.9 hPa SW 8 km/h 14.5 km/h 95% 0 mm
03:10 11.7 °C 10.9 °C 1000.9 hPa SW 6.4 km/h 14.5 km/h 95% 0 mm
03:15 11.6 °C 10.8 °C 1001.2 hPa SW 6.4 km/h 16.1 km/h 95% 0 mm
03:20 11.6 °C 10.6 °C 1001.2 hPa SW 6.4 km/h 12.9 km/h 94% 0 mm
03:25 11.5 °C 10.7 °C 1001.2 hPa SSW 4.8 km/h 14.5 km/h 95% 0 mm
03:30 11.6 °C 10.8 °C 1001.2 hPa SW 6.4 km/h 14.5 km/h 95% 0 mm
03:35 11.6 °C 10.8 °C 1001.2 hPa SW 4.8 km/h 9.7 km/h 95% 0 mm
03:40 11.6 °C 10.8 °C 1001.6 hPa SW 4.8 km/h 9.7 km/h 95% 0 mm
03:45 11.6 °C 10.8 °C 1001.6 hPa SW 4.8 km/h 9.7 km/h 95% 0 mm
03:50 11.6 °C 10.8 °C 1001.6 hPa SW 6.4 km/h 9.7 km/h 95% 0 mm
03:55 11.6 °C 10.8 °C 1001.6 hPa WSW 3.2 km/h 8 km/h 95% 0 mm
04:00 11.7 °C 10.9 °C 1001.6 hPa SW 4.8 km/h 8 km/h 95% 0 mm
04:05 11.6 °C 10.8 °C 1001.6 hPa South 3.2 km/h 8 km/h 95% 0 mm
04:10 11.6 °C 10.8 °C 1001.6 hPa SW 3.2 km/h 9.7 km/h 95% 0 mm
04:15 11.7 °C 10.9 °C 1001.6 hPa WSW 4.8 km/h 6.4 km/h 95% 0 mm
04:20 11.7 °C 10.9 °C 1001.6 hPa WSW 1.6 km/h 8 km/h 95% 0 mm
04:25 11.7 °C 10.9 °C 1001.6 hPa West 3.2 km/h 8 km/h 95% 0 mm
04:30 11.7 °C 10.9 °C 1001.6 hPa WSW 3.2 km/h 8 km/h 95% 0 mm
04:35 11.8 °C 11.1 °C 1001.6 hPa WSW 3.2 km/h 9.7 km/h 95% 0 mm
04:40 11.8 °C 11 °C 1001.6 hPa WSW 4.8 km/h 9.7 km/h 95% 0 mm
04:45 11.8 °C 11.1 °C 1001.9 hPa SW 3.2 km/h 8 km/h 95% 0 mm
04:50 11.8 °C 11.1 °C 1001.9 hPa WSW 3.2 km/h 8 km/h 95% 0 mm
04:55 11.8 °C 11.1 °C 1001.9 hPa SW 6.4 km/h 9.7 km/h 95% 0 mm
05:00 11.8 °C 11.1 °C 1001.9 hPa SW 4.8 km/h 9.7 km/h 95% 0 mm
05:04 11.9 °C 11.1 °C 1001.9 hPa SW 4.8 km/h 6.4 km/h 95% 0 mm
05:10 11.9 °C 11.1 °C 1001.9 hPa Calm   6.4 km/h 95% 0 mm
05:15 11.9 °C 11.1 °C 1001.9 hPa WSW 3.2 km/h 6.4 km/h 95% 0 mm
05:20 11.9 °C 11.1 °C 1001.9 hPa WSW 4.8 km/h 6.4 km/h 95% 0 mm
05:24 11.8 °C 11 °C 1001.9 hPa WSW 4.8 km/h 6.4 km/h 95% 0 mm
05:30 11.8 °C 11 °C 1001.9 hPa WSW 4.8 km/h 9.7 km/h 95% 0 mm
05:35 11.7 °C 10.9 °C 1001.9 hPa WSW 1.6 km/h 9.7 km/h 95% 0 mm
05:40 11.8 °C 11 °C 1001.9 hPa SW 6.4 km/h 11.3 km/h 95% 0 mm
05:45 11.7 °C 10.9 °C 1001.9 hPa WSW 3.2 km/h 12.9 km/h 95% 0 mm
05:50 11.7 °C 10.9 °C 1001.9 hPa SW 6.4 km/h 11.3 km/h 95% 0 mm
05:55 11.7 °C 10.9 °C 1002.3 hPa WSW 4.8 km/h 11.3 km/h 95% 0 mm
06:00 11.7 °C 10.9 °C 1002.3 hPa SW 4.8 km/h 12.9 km/h 95% 0 mm
06:05 11.8 °C 11 °C 1002.3 hPa SW 4.8 km/h 12.9 km/h 95% 0 mm
06:10 11.7 °C 10.9 °C 1002.6 hPa SW 6.4 km/h 11.3 km/h 95% 0 mm
06:15 11.7 °C 10.9 °C 1002.6 hPa SW 6.4 km/h 12.9 km/h 95% 0 mm
06:19 11.7 °C 10.9 °C 1002.6 hPa SW 8 km/h 12.9 km/h 95% 0 mm
06:24 11.7 °C 10.9 °C 1002.6 hPa SW 6.4 km/h 12.9 km/h 95% 0 mm
06:30 11.8 °C 11 °C 1002.6 hPa SW 9.7 km/h 11.3 km/h 95% 0 mm
06:35 11.8 °C 11 °C 1002.6 hPa SW 3.2 km/h 11.3 km/h 95% 0 mm
06:40 11.8 °C 11 °C 1002.6 hPa SW 4.8 km/h 16.1 km/h 95% 0 mm
06:45 11.8 °C 11.1 °C 1002.6 hPa SW 1.6 km/h 9.7 km/h 95% 0 mm
06:50 11.8 °C 11.1 °C 1002.9 hPa South 1.6 km/h 12.9 km/h 95% 0 mm
06:55 11.8 °C 11.1 °C 1002.9 hPa SW 4.8 km/h 12.9 km/h 95% 0 mm
07:00 11.8 °C 11.1 °C 1002.9 hPa SW 4.8 km/h 11.3 km/h 95% 0 mm
07:05 11.9 °C 11.1 °C 1002.9 hPa WSW 4.8 km/h 11.3 km/h 95% 0 mm
07:10 12.1 °C 11.3 °C 1003.3 hPa WSW 3.2 km/h 8 km/h 95% 0 mm
07:15 12.1 °C 11.3 °C 1003.3 hPa WSW 3.2 km/h 11.3 km/h 95% 0 mm
07:19 12.1 °C 11.1 °C 1003.6 hPa SW 4.8 km/h 11.3 km/h 94% 0 mm
07:24 12 °C 11.1 °C 1003.6 hPa WSW 6.4 km/h 11.3 km/h 94% 0 mm
07:29 12.1 °C 11.1 °C 1003.6 hPa WNW 6.4 km/h 12.9 km/h 94% 0 mm
07:35 11.9 °C 10.9 °C 1003.9 hPa WNW 9.7 km/h 22.5 km/h 94% 0 mm
07:40 11.8 °C 10.8 °C 1003.9 hPa West 9.7 km/h 12.9 km/h 94% 0 mm
07:45 11.7 °C 10.7 °C 1003.9 hPa SSW 8 km/h 16.1 km/h 94% 0 mm
07:50 11.6 °C 10.7 °C 1004.3 hPa WSW 12.9 km/h 14.5 km/h 94% 0 mm
07:54 11.6 °C 10.6 °C 1004.3 hPa WSW 6.4 km/h 17.7 km/h 94% 0 mm
08:00 11.6 °C 10.6 °C 1004.3 hPa WSW 6.4 km/h 17.7 km/h 94% 0 mm
08:05 11.6 °C 10.6 °C 1004.3 hPa WSW 6.4 km/h 16.1 km/h 94% 0 mm
08:10 11.6 °C 10.7 °C 1004.3 hPa WSW 6.4 km/h 16.1 km/h 94% 0 mm
08:15 11.6 °C 10.7 °C 1004.6 hPa WSW 6.4 km/h 14.5 km/h 94% 0 mm
08:20 11.7 °C 10.7 °C 1004.6 hPa WSW 4.8 km/h 14.5 km/h 94% 0 mm
08:24 11.7 °C 10.8 °C 1004.6 hPa WSW 4.8 km/h 11.3 km/h 94% 0 mm
08:29 11.8 °C 10.8 °C 1004.6 hPa WSW 1.6 km/h 8 km/h 94% 0 mm
08:35 11.8 °C 11.1 °C 1004.6 hPa SW 6.4 km/h 11.3 km/h 95% 0 mm
08:40 11.9 °C 11.1 °C 1004.6 hPa SW 8 km/h 8 km/h 95% 0 mm
08:44 12.1 °C 11.3 °C 1004.6 hPa SW 4.8 km/h 8 km/h 95% 0 mm
08:49 12.1 °C 11.1 °C 1004.6 hPa WSW 9.7 km/h 11.3 km/h 94% 0 mm
08:55 12.1 °C 11.2 °C 1004.6 hPa SW 4.8 km/h 11.3 km/h 94% 0 mm
08:59 12.1 °C 11.2 °C 1005 hPa SW 6.4 km/h 11.3 km/h 94% 0 mm
09:05 12.2 °C 11.2 °C 1005 hPa SW 4.8 km/h 11.3 km/h 94% 0 mm
09:10 12.2 °C 11.2 °C 1005 hPa SW 6.4 km/h 14.5 km/h 94% 0 mm
09:15 12.1 °C 11.2 °C 1005 hPa WSW 6.4 km/h 12.9 km/h 94% 0 mm
09:20 12.1 °C 11.2 °C 1005 hPa WSW 6.4 km/h 12.9 km/h 94% 0 mm
09:24 12.3 °C 11.5 °C 1005 hPa WSW 3.2 km/h 9.7 km/h 95% 0 mm
09:30 12.4 °C 11.7 °C 1005 hPa WSW 4.8 km/h 8 km/h 95% 0 mm
09:35 12.6 °C 11.8 °C 1005 hPa SW 3.2 km/h 9.7 km/h 95% 0 mm
09:39 12.8 °C 12.1 °C 1005.3 hPa West 6.4 km/h 6.4 km/h 95% 0.25 mm
09:44 13.1 °C 12.3 °C 1005.3 hPa WSW 4.8 km/h 8 km/h 95% 0.25 mm
09:49 13.1 °C 12.3 °C 1005.3 hPa West 4.8 km/h 8 km/h 95% 0.25 mm
09:54 13.3 °C 12.3 °C 1005.3 hPa WNW 4.8 km/h 9.7 km/h 94% 0.25 mm
09:59 13.4 °C 12.6 °C 1005.3 hPa West 4.8 km/h 12.9 km/h 95% 0.25 mm
10:05 13.6 °C 12.6 °C 1005.3 hPa WNW 3.2 km/h 12.9 km/h 94% 0.51 mm
10:10 13.6 °C 12.7 °C 1005.6 hPa WNW 4.8 km/h 9.7 km/h 94% 0.51 mm
10:15 13.8 °C 12.9 °C 1005.6 hPa WNW 9.7 km/h 11.3 km/h 94% 0.51 mm
10:19 13.8 °C 12.8 °C 1005.6 hPa WNW 4.8 km/h 11.3 km/h 94% 0.51 mm
10:25 13.8 °C 12.7 °C 1005.6 hPa WNW 6.4 km/h 11.3 km/h 93% 0.51 mm
10:30 13.8 °C 12.7 °C 1006 hPa WNW 4.8 km/h 11.3 km/h 93% 0.51 mm
10:34 13.9 °C 12.9 °C 1006 hPa WNW 3.2 km/h 8 km/h 94% 0.51 mm
10:39 13.6 °C 12.5 °C 1006 hPa WNW 8 km/h 9.7 km/h 93% 0.25 mm
10:44 13.6 °C 12.5 °C 1006 hPa West 3.2 km/h 9.7 km/h 93% 0.25 mm
10:49 13.7 °C 12.6 °C 1006 hPa West 4.8 km/h 9.7 km/h 93% 0.25 mm
10:55 13.8 °C 12.9 °C 1006 hPa West 4.8 km/h 9.7 km/h 94% 0.51 mm
11:00 13.9 °C 13 °C 1006 hPa WSW 4.8 km/h 11.3 km/h 94% 0.51 mm
11:04 13.9 °C 13 °C 1006 hPa WSW 6.4 km/h 9.7 km/h 94% 0.25 mm
11:10 14.2 °C 13.3 °C 1006 hPa West 8 km/h 9.7 km/h 94% 0.51 mm
11:15 14.3 °C 13.2 °C 1006 hPa WSW 3.2 km/h 12.9 km/h 93% 0.51 mm
11:19 14.8 °C 13.8 °C 1006 hPa West 4.8 km/h 12.9 km/h 94% 0.51 mm
11:24 14.8 °C 13.5 °C 1006 hPa West 3.2 km/h 8 km/h 92% 0.51 mm
11:29 14.8 °C 13.7 °C 1006 hPa West 4.8 km/h 9.7 km/h 93% 0.51 mm
11:35 14.9 °C 13.6 °C 1006.3 hPa West 4.8 km/h 12.9 km/h 92% 0.51 mm
11:39 14.9 °C 13.7 °C 1006.3 hPa West 4.8 km/h 9.7 km/h 92% 0.51 mm
11:44 15 °C 13.6 °C 1006 hPa WSW 4.8 km/h 9.7 km/h 91% 0.51 mm
11:50 14.6 °C 13.2 °C 1006 hPa West 8 km/h 16.1 km/h 91% 0.51 mm
11:54 14.4 °C 13.2 °C 1006.3 hPa SW 8 km/h 12.9 km/h 92% 0.25 mm
11:59 14.4 °C 13.1 °C 1006.3 hPa WSW 4.8 km/h 14.5 km/h 92% 0.25 mm
12:04 14.4 °C 13.1 °C 1006.3 hPa WSW 8 km/h 12.9 km/h 92% 0.25 mm
12:09 14.3 °C 13.1 °C 1006.3 hPa SW 4.8 km/h 14.5 km/h 92% 0 mm
12:15 14.6 °C 13.5 °C 1006.3 hPa SW 3.2 km/h 12.9 km/h 93% 0 mm
12:19 14.7 °C 13.4 °C 1006.3 hPa SW 6.4 km/h 16.1 km/h 92% 0 mm
12:24 15.1 °C 13.8 °C 1006.3 hPa SW 8 km/h 16.1 km/h 92% 0 mm
12:29 15.5 °C 14.2 °C 1006.3 hPa SW 6.4 km/h 11.3 km/h 92% 0 mm
12:35 15.7 °C 14.1 °C 1006.3 hPa SW 6.4 km/h 14.5 km/h 90% 0 mm
12:40 15.3 °C 13.6 °C 1006.3 hPa SW 3.2 km/h 14.5 km/h 89% 0 mm
12:45 15.2 °C 13.4 °C 1006.3 hPa WSW 4.8 km/h 17.7 km/h 89% 0 mm
12:49 14.9 °C 13.3 °C 1006.7 hPa SW 8 km/h 17.7 km/h 90% 0 mm
12:54 15 °C 13.4 °C 1006.7 hPa SW 9.7 km/h 12.9 km/h 90% 0 mm
12:59 15.6 °C 14 °C 1006.7 hPa SW 6.4 km/h 12.9 km/h 90% 0 mm
13:04 16.6 °C 14.7 °C 1006.7 hPa SW 9.7 km/h 14.5 km/h 89% 0 mm
13:09 16.8 °C 14.6 °C 1006.7 hPa WSW 11.3 km/h 14.5 km/h 87% 0 mm
13:15 16.2 °C 13.8 °C 1007 hPa SW 9.7 km/h 19.3 km/h 86% 0 mm
13:19 15.9 °C 13.6 °C 1007 hPa WSW 9.7 km/h 19.3 km/h 86% 0 mm
13:24 15.3 °C 13.1 °C 1007 hPa WSW 9.7 km/h 22.5 km/h 87% 0 mm
13:29 14.7 °C 12.5 °C 1007 hPa SW 9.7 km/h 22.5 km/h 87% 0 mm
13:34 14.1 °C 12.1 °C 1007.3 hPa SW 11.3 km/h 20.9 km/h 88% 0 mm
13:40 13.6 °C 11.8 °C 1007.3 hPa WSW 11.3 km/h 22.5 km/h 89% 0 mm
13:44 13.5 °C 11.9 °C 1007.3 hPa West 20.9 km/h 20.9 km/h 90% 0 mm
13:49 13.4 °C 11.8 °C 1007.3 hPa WSW 9.7 km/h 24.1 km/h 90% 0 mm
13:54 13.7 °C 12.1 °C 1007.3 hPa SW 11.3 km/h 24.1 km/h 90% 0 mm
14:00 13.9 °C 11.9 °C 1007.3 hPa WSW 12.9 km/h 24.1 km/h 88% 0 mm
14:04 13.8 °C 11.9 °C 1007.3 hPa WNW 14.5 km/h 19.3 km/h 88% 0 mm
14:09 13.9 °C 11.9 °C 1007.3 hPa WSW 14.5 km/h 19.3 km/h 88% 0 mm
14:14 14.7 °C 12.7 °C 1007.7 hPa SW 17.7 km/h 17.7 km/h 88% 0 mm
14:19 14.8 °C 12.7 °C 1007.7 hPa WSW 11.3 km/h 24.1 km/h 87% 0 mm
14:24 15.2 °C 12.8 °C 1007.7 hPa SSW 12.9 km/h 29 km/h 86% 0 mm
14:29 14.7 °C 12.2 °C 1007.7 hPa WSW 14.5 km/h 27.4 km/h 85% 0 mm
14:34 14.4 °C 11.9 °C 1007.7 hPa WSW 11.3 km/h 24.1 km/h 85% 0 mm
14:39 14.4 °C 12.1 °C 1007.7 hPa SW 11.3 km/h 22.5 km/h 86% 0 mm
14:44 14.3 °C 11.8 °C 1007.7 hPa WSW 14.5 km/h 22.5 km/h 85% 0 mm
14:49 14.1 °C 11.9 °C 1008 hPa WSW 11.3 km/h 22.5 km/h 87% 0 mm
14:55 14.1 °C 12.3 °C 1008 hPa SW 14.5 km/h 19.3 km/h 89% 0 mm
14:59 13.9 °C 12 °C 1008 hPa WSW 9.7 km/h 22.5 km/h 88% 0 mm
15:05 13.6 °C 11.6 °C 1008 hPa WSW 11.3 km/h 25.7 km/h 88% 0 mm
15:09 13.3 °C 11.4 °C 1008 hPa SW 17.7 km/h 22.5 km/h 88% 0 mm
15:14 13.3 °C 11.6 °C 1008 hPa SW 11.3 km/h 22.5 km/h 89% 0 mm
15:19 13.3 °C 11.6 °C 1008.4 hPa SW 9.7 km/h 22.5 km/h 89% 0 mm
15:24 13.3 °C 11.7 °C 1008.4 hPa SW 8 km/h 20.9 km/h 90% 0 mm
15:29 13.2 °C 11.6 °C 1008.4 hPa West 4.8 km/h 20.9 km/h 90% 0 mm
15:35 13 °C 11.4 °C 1008.4 hPa SW 11.3 km/h 30.6 km/h 90% 0 mm
15:40 12.9 °C 11.5 °C 1008.4 hPa WSW 11.3 km/h 20.9 km/h 91% 0 mm
15:44 13 °C 11.6 °C 1008.4 hPa WSW 1.6 km/h 22.5 km/h 91% 0 mm
15:49 12.9 °C 11.7 °C 1008.4 hPa WSW 9.7 km/h 22.5 km/h 92% 0 mm
15:54 12.9 °C 11.6 °C 1008.4 hPa WSW 8 km/h 17.7 km/h 92% 0 mm
15:59 13 °C 11.7 °C 1008.4 hPa SW 8 km/h 14.5 km/h 92% 0 mm
16:04 13 °C 11.7 °C 1008.4 hPa SW 8 km/h 12.9 km/h 92% 0 mm
16:09 12.9 °C 11.7 °C 1008.4 hPa WSW 6.4 km/h 25.7 km/h 92% 0 mm
16:14 13.1 °C 11.8 °C 1008.4 hPa West 4.8 km/h 19.3 km/h 92% 0 mm
16:19 13.1 °C 11.8 °C 1008.4 hPa SW 9.7 km/h 19.3 km/h 92% 0 mm
16:24 12.9 °C 11.7 °C 1008.4 hPa SW 11.3 km/h 25.7 km/h 92% 0 mm
16:29 13.1 °C 11.8 °C 1008.4 hPa SSW 8 km/h 19.3 km/h 92% 0 mm
16:34 12.9 °C 11.7 °C 1008.7 hPa West 8 km/h 20.9 km/h 92% 0 mm
16:39 13 °C 11.7 °C 1008.4 hPa WSW 8 km/h 19.3 km/h 92% 0 mm
16:44 13.2 °C 11.9 °C 1008.7 hPa South 6.4 km/h 17.7 km/h 92% 0 mm
16:49 13.3 °C 12 °C 1008.7 hPa SW 8 km/h 17.7 km/h 92% 0 mm
16:54 13.4 °C 12.1 °C 1008.7 hPa SW 8 km/h 17.7 km/h 92% 0 mm
16:59 13.6 °C 12.1 °C 1008.7 hPa SW 8 km/h 22.5 km/h 91% 0 mm
17:04 13.6 °C 11.9 °C 1008.7 hPa WSW 9.7 km/h 22.5 km/h 90% 0 mm
17:10 13.6 °C 12 °C 1008.7 hPa WSW 8 km/h 14.5 km/h 90% 0 mm
17:15 13.6 °C 12 °C 1009 hPa WSW 9.7 km/h 17.7 km/h 90% 0 mm
17:19 13.5 °C 11.7 °C 1009 hPa SW 9.7 km/h 24.1 km/h 89% 0 mm
17:24 13.3 °C 11.6 °C 1009 hPa SW 11.3 km/h 25.7 km/h 89% 0 mm
17:29 13.2 °C 11.4 °C 1009 hPa WSW 11.3 km/h 22.5 km/h 89% 0 mm
17:34 13.1 °C 11.3 °C 1009.4 hPa West 14.5 km/h 20.9 km/h 89% 0 mm
17:39 12.9 °C 11.3 °C 1009.4 hPa SW 8 km/h 24.1 km/h 90% 0 mm
17:44 12.8 °C 11.2 °C 1009.4 hPa SW 11.3 km/h 30.6 km/h 90% 0 mm
17:49 12.8 °C 11.2 °C 1009.4 hPa SW 12.9 km/h 30.6 km/h 90% 0 mm
17:54 12.8 °C 11.2 °C 1009.4 hPa SW 11.3 km/h 25.7 km/h 90% 0 mm
17:59 12.8 °C 11.2 °C 1009.7 hPa West 6.4 km/h 24.1 km/h 90% 0 mm
18:04 12.7 °C 11.3 °C 1009.7 hPa SSW 11.3 km/h 17.7 km/h 91% 0 mm
18:10 12.7 °C 11.3 °C 1009.7 hPa SW 4.8 km/h 19.3 km/h 91% 0 mm
18:14 12.7 °C 11.2 °C 1009.7 hPa WSW 9.7 km/h 19.3 km/h 91% 0 mm
18:19 12.7 °C 11.4 °C 1009.7 hPa WSW 8 km/h 17.7 km/h 92% 0 mm
18:24 12.6 °C 11.3 °C 1009.7 hPa SW 8 km/h 17.7 km/h 92% 0 mm
18:29 12.7 °C 11.4 °C 1009.7 hPa SW 8 km/h 16.1 km/h 92% 0 mm
18:34 12.7 °C 11.4 °C 1009.7 hPa SW 6.4 km/h 19.3 km/h 92% 0 mm
18:39 12.7 °C 11.4 °C 1009.7 hPa WSW 11.3 km/h 22.5 km/h 92% 0 mm
18:44 12.7 °C 11.4 °C 1010 hPa WSW 9.7 km/h 22.5 km/h 92% 0 mm
18:49 12.6 °C 11.3 °C 1010 hPa WSW 6.4 km/h 19.3 km/h 92% 0 mm
18:54 12.6 °C 11.3 °C 1010 hPa West 8 km/h 16.1 km/h 92% 0 mm
18:59 12.5 °C 11.2 °C 1010.4 hPa WSW 11.3 km/h 16.1 km/h 92% 0.25 mm
19:04 12.4 °C 11.2 °C 1010.4 hPa West 8 km/h 14.5 km/h 92% 0.25 mm
19:09 12.4 °C 11.3 °C 1010.4 hPa SW 8 km/h 12.9 km/h 93% 0.76 mm
19:14 12.4 °C 11.3 °C 1010.4 hPa SW 6.4 km/h 12.9 km/h 93% 1.02 mm
19:19 12.4 °C 11.3 °C 1010.4 hPa WSW 6.4 km/h 14.5 km/h 93% 1.27 mm
19:24 12.4 °C 11.3 °C 1010.4 hPa SW 6.4 km/h 14.5 km/h 93% 1.27 mm
19:29 12.3 °C 11.2 °C 1010.7 hPa SW 8 km/h 19.3 km/h 93% 1.27 mm
19:34 12.3 °C 11.2 °C 1010.7 hPa WSW 8 km/h 19.3 km/h 93% 1.52 mm
19:39 12.3 °C 11.2 °C 1010.7 hPa WSW 6.4 km/h 12.9 km/h 93% 1.52 mm
19:44 12.3 °C 11.2 °C 1010.7 hPa WSW 1.6 km/h 12.9 km/h 93% 1.52 mm
19:49 12.3 °C 11.2 °C 1010.7 hPa SW 8 km/h 11.3 km/h 93% 1.52 mm
19:54 12.2 °C 11.1 °C 1010.7 hPa SW 4.8 km/h 9.7 km/h 93% 1.52 mm
19:59 12.2 °C 11.1 °C 1010.7 hPa SW 8 km/h 12.9 km/h 93% 1.27 mm
20:04 12.3 °C 11.2 °C 1010.7 hPa SW 3.2 km/h 11.3 km/h 93% 1.27 mm
20:09 12.3 °C 11.2 °C 1010.7 hPa SW 8 km/h 8 km/h 93% 0.76 mm
20:14 12.3 °C 11.2 °C 1010.7 hPa SW 4.8 km/h 9.7 km/h 93% 0.76 mm
20:19 12.3 °C 11.2 °C 1010.7 hPa SW 1.6 km/h 8 km/h 93% 0.51 mm
20:24 12.4 °C 11.3 °C 1010.7 hPa SW 4.8 km/h 9.7 km/h 93% 0.51 mm
20:29 12.4 °C 11.5 °C 1010.7 hPa SW 3.2 km/h 8 km/h 94% 0.51 mm
20:34 12.6 °C 11.6 °C 1010.7 hPa SW 3.2 km/h 8 km/h 94% 0.25 mm
20:39 12.6 °C 11.7 °C 1010.7 hPa WSW 8 km/h 11.3 km/h 94% 0.25 mm
20:44 12.7 °C 11.7 °C 1010.7 hPa SW 8 km/h 12.9 km/h 94% 0.25 mm
20:49 12.7 °C 11.7 °C 1010.7 hPa West 6.4 km/h 11.3 km/h 94% 0.25 mm
20:54 12.7 °C 11.7 °C 1010.7 hPa WSW 6.4 km/h 9.7 km/h 94% 0.25 mm
20:59 12.6 °C 11.6 °C 1010.7 hPa SW 4.8 km/h 14.5 km/h 94% 0.25 mm
21:04 12.6 °C 11.6 °C 1010.7 hPa SW 4.8 km/h 8 km/h 94% 0.25 mm
21:09 12.6 °C 11.6 °C 1010.7 hPa SW 1.6 km/h 11.3 km/h 94% 0.25 mm
21:14 12.5 °C 11.6 °C 1010.7 hPa SSW 3.2 km/h 9.7 km/h 94% 0 mm
21:19 12.4 °C 11.5 °C 1010.7 hPa SW 3.2 km/h 9.7 km/h 94% 0 mm
21:24 12.4 °C 11.5 °C 1011.1 hPa SW 3.2 km/h 11.3 km/h 94% 0 mm
21:29 12.4 °C 11.5 °C 1011.1 hPa SW 4.8 km/h 11.3 km/h 94% 0 mm
21:34 12.4 °C 11.5 °C 1011.1 hPa SW 6.4 km/h 14.5 km/h 94% 0 mm
21:39 12.4 °C 11.4 °C 1011.1 hPa SW 6.4 km/h 14.5 km/h 94% 0 mm
21:44 12.4 °C 11.4 °C 1011.1 hPa SW 6.4 km/h 16.1 km/h 94% 0 mm
21:49 12.3 °C 11.3 °C 1011.1 hPa WSW 12.9 km/h 12.9 km/h 94% 0 mm
21:54 12.3 °C 11.3 °C 1011.4 hPa SW 4.8 km/h 12.9 km/h 94% 0 mm
21:59 12.2 °C 11.3 °C 1011.4 hPa SSW 6.4 km/h 14.5 km/h 94% 0 mm
22:04 12.2 °C 11.3 °C 1011.4 hPa SSW 8 km/h 19.3 km/h 94% 0 mm
22:09 12.2 °C 11.2 °C 1011.7 hPa SW 4.8 km/h 16.1 km/h 94% 0 mm
22:14 12.2 °C 11.2 °C 1011.7 hPa SW 6.4 km/h 16.1 km/h 94% 0 mm
22:19 12.1 °C 11.2 °C 1011.7 hPa SW 6.4 km/h 12.9 km/h 94% 0 mm
22:24 12.2 °C 11.2 °C 1011.7 hPa SW 6.4 km/h 12.9 km/h 94% 0 mm
22:29 12.2 °C 11.2 °C 1011.7 hPa SW 6.4 km/h 11.3 km/h 94% 0 mm
22:34 12.3 °C 11.3 °C 1011.7 hPa West 3.2 km/h 12.9 km/h 94% 0 mm
22:39 12.3 °C 11.3 °C 1011.7 hPa WSW 1.6 km/h 14.5 km/h 94% 0 mm
22:44 12.3 °C 11.3 °C 1011.7 hPa WSW 6.4 km/h 16.1 km/h 94% 0 mm
22:49 12.2 °C 11.3 °C 1012.1 hPa WSW 6.4 km/h 16.1 km/h 94% 0 mm
22:54 12.2 °C 11.2 °C 1011.7 hPa WSW 4.8 km/h 8 km/h 94% 0 mm
22:59 12.1 °C 11.2 °C 1012.1 hPa SSW 3.2 km/h 11.3 km/h 94% 0 mm
23:04 12.2 °C 11.2 °C 1012.1 hPa SW 6.4 km/h 11.3 km/h 94% 0 mm
23:09 12.2 °C 11.2 °C 1012.1 hPa WSW 3.2 km/h 6.4 km/h 94% 0 mm
23:14 12.2 °C 11.2 °C 1012.1 hPa SW 3.2 km/h 6.4 km/h 94% 0 mm
23:19 12.2 °C 11.2 °C 1011.7 hPa SW 3.2 km/h 9.7 km/h 94% 0 mm
23:24 12.2 °C 11.2 °C 1011.7 hPa SW 3.2 km/h 11.3 km/h 94% 0 mm
23:29 12.1 °C 11.2 °C 1011.7 hPa SW 3.2 km/h 11.3 km/h 94% 0 mm
23:34 12.2 °C 11.2 °C 1012.1 hPa SSW 6.4 km/h 9.7 km/h 94% 0 mm
23:39 12.2 °C 11.2 °C 1012.1 hPa SSW 3.2 km/h 9.7 km/h 94% 0 mm
23:44 12.2 °C 11.2 °C 1012.1 hPa SW 4.8 km/h 4.8 km/h 94% 0 mm
23:49 12.2 °C 11.2 °C 1012.1 hPa WSW 1.6 km/h 8 km/h 94% 0.25 mm
23:54 12.2 °C 11.2 °C 1011.7 hPa Calm   9.7 km/h 94% 0.25 mm
23:59 12.2 °C 11.2 °C 1011.7 hPa SW 8 km/h 11.3 km/h 94% 0.25 mm
Buffalo, New York, USA
Compliments of Weather Underground - 2.5 mb